createdAt,value
2023-07-15T00:01:38.666Z,100012.02
2023-07-15T00:04:15.294Z,100011.32
2023-07-15T00:06:45.897Z,100014.98
2023-07-15T00:09:22.040Z,100008.11
2023-07-15T00:11:50.818Z,100004.89
2023-07-15T00:14:22.361Z,100008.25
2023-07-15T00:16:52.210Z,99998.23
2023-07-15T00:19:21.514Z,100005.34
2023-07-15T00:21:50.602Z,99993.00
2023-07-15T00:24:19.375Z,99997.84
2023-07-15T00:26:49.091Z,99995.47
2023-07-15T00:29:18.043Z,100000.25
2023-07-15T00:31:46.849Z,99997.88
2023-07-15T00:34:15.928Z,100004.16
2023-07-15T00:36:45.523Z,99995.32
2023-07-15T00:39:14.265Z,99993.45
2023-07-15T00:41:43.075Z,99988.31
2023-07-15T00:44:12.826Z,99986.58
2023-07-15T00:46:46.169Z,99977.55
2023-07-15T00:49:19.087Z,99967.38
2023-07-15T00:51:52.784Z,99964.50
2023-07-15T00:54:21.532Z,99966.47
2023-07-15T00:56:50.442Z,99966.33
2023-07-15T00:59:19.542Z,99955.27
2023-07-15T01:01:48.434Z,99954.23
2023-07-15T01:04:17.247Z,99955.80
2023-07-15T01:06:46.658Z,99952.78
2023-07-15T01:09:15.593Z,99955.89
2023-07-15T01:11:44.611Z,99953.87
2023-07-15T01:14:14.297Z,99962.35
2023-07-15T01:16:43.069Z,99958.66
2023-07-15T01:19:11.804Z,99959.98
2023-07-15T01:21:44.290Z,99956.28
2023-07-15T01:24:13.036Z,99962.59
2023-07-15T01:26:41.773Z,99964.91
2023-07-15T01:29:10.528Z,99959.73
2023-07-15T01:31:39.279Z,99950.35
2023-07-15T01:34:08.848Z,99954.70
2023-07-15T01:36:37.606Z,99948.27
2023-07-15T01:39:08.000Z,99953.55
2023-07-15T01:41:38.860Z,99951.03
2023-07-15T01:44:09.496Z,99957.34
2023-07-15T01:46:39.971Z,99945.45
2023-07-15T01:49:10.451Z,99941.22
2023-07-15T01:51:39.195Z,99934.91
2023-07-15T01:54:08.010Z,99940.53
2023-07-15T01:56:37.604Z,99941.02
2023-07-15T01:59:06.364Z,99949.16
2023-07-15T02:01:35.206Z,99945.94
2023-07-15T02:04:04.011Z,99945.39
2023-07-15T02:06:32.869Z,99946.42
2023-07-15T02:09:02.581Z,99943.77
2023-07-15T02:11:31.433Z,99940.92
2023-07-15T02:14:00.215Z,99939.91
2023-07-15T02:16:29.033Z,99935.43
2023-07-15T02:18:57.842Z,99935.72
2023-07-15T02:21:26.620Z,99942.66
2023-07-15T02:23:55.378Z,99945.47
2023-07-15T02:26:24.152Z,99944.97
2023-07-15T02:28:52.930Z,99944.62
2023-07-15T02:31:21.873Z,99944.56
2023-07-15T02:33:54.722Z,99944.07
2023-07-15T02:36:23.500Z,99945.48
2023-07-15T02:38:52.255Z,99946.32
2023-07-15T02:41:21.031Z,99943.45
2023-07-15T02:43:50.163Z,99937.15
2023-07-15T02:46:20.882Z,99937.69
2023-07-15T02:48:49.919Z,99938.59
2023-07-15T02:51:20.395Z,99934.14
2023-07-15T02:53:49.189Z,99948.42
2023-07-15T02:56:17.941Z,99941.88
2023-07-15T02:58:46.725Z,99949.86
2023-07-15T03:01:15.491Z,99954.69
2023-07-15T03:03:44.244Z,99951.48
2023-07-15T03:06:13.820Z,99947.48
2023-07-15T03:08:42.914Z,99948.53
2023-07-15T03:11:12.659Z,99941.39
2023-07-15T03:13:41.433Z,99948.39
2023-07-15T03:16:12.125Z,99950.02
2023-07-15T03:18:42.376Z,99943.84
2023-07-15T03:21:11.138Z,99947.06
2023-07-15T03:23:41.615Z,99944.40
2023-07-15T03:26:11.332Z,99942.78
2023-07-15T03:28:40.897Z,99939.71
2023-07-15T03:31:09.722Z,99937.61
2023-07-15T03:33:38.771Z,99936.13
2023-07-15T03:36:07.575Z,99930.98
2023-07-15T03:38:36.314Z,99934.34
2023-07-15T03:41:05.604Z,99937.78
2023-07-15T03:43:34.374Z,99932.87
2023-07-15T03:46:04.442Z,99930.63
2023-07-15T03:48:33.282Z,99930.33
2023-07-15T03:51:02.040Z,99930.25
2023-07-15T03:53:32.707Z,99935.78
2023-07-15T03:56:01.498Z,99935.38
2023-07-15T03:58:30.255Z,99929.62
2023-07-15T04:00:59.108Z,99933.89
2023-07-15T04:03:27.886Z,99931.45
2023-07-15T04:05:56.694Z,99930.88
2023-07-15T04:08:25.448Z,99931.63
2023-07-15T04:10:54.220Z,99931.70
2023-07-15T04:13:23.153Z,99936.27
2023-07-15T04:15:51.944Z,99931.45
2023-07-15T04:18:20.682Z,99930.44
2023-07-15T04:20:53.960Z,99919.20
2023-07-15T04:23:22.824Z,99922.84
2023-07-15T04:25:51.743Z,99917.25
2023-07-15T04:28:20.578Z,99920.16
2023-07-15T04:30:49.330Z,99913.02
2023-07-15T04:33:19.013Z,99915.19
2023-07-15T04:35:47.767Z,99920.70
2023-07-15T04:38:16.529Z,99917.03
2023-07-15T04:40:45.295Z,99913.84
2023-07-15T04:43:14.057Z,99917.19
2023-07-15T04:45:42.845Z,99917.47
2023-07-15T04:48:11.746Z,99919.07
2023-07-15T04:50:41.380Z,99924.98
2023-07-15T04:53:10.188Z,99926.74
2023-07-15T04:55:40.845Z,99926.48
2023-07-15T04:58:09.425Z,99932.87
2023-07-15T05:00:38.247Z,99929.91
2023-07-15T05:03:07.271Z,99934.85
2023-07-15T05:05:36.659Z,99930.35
2023-07-15T05:08:13.245Z,99922.47
2023-07-15T05:10:44.386Z,99923.36
2023-07-15T05:13:12.572Z,99924.33
2023-07-15T05:15:41.508Z,99920.77
2023-07-15T05:18:10.376Z,99923.09
2023-07-15T05:20:39.605Z,99924.92
2023-07-15T05:23:08.535Z,99922.99
2023-07-15T05:25:37.424Z,99918.60
2023-07-15T05:28:06.314Z,99925.23
2023-07-15T05:30:37.011Z,99925.75
2023-07-15T05:33:06.043Z,99923.39
2023-07-15T05:35:34.920Z,99914.55
2023-07-15T05:38:03.646Z,99922.52
2023-07-15T05:40:33.447Z,99922.55
2023-07-15T05:43:02.192Z,99930.66
2023-07-15T05:45:30.934Z,99928.14
2023-07-15T05:47:59.683Z,99925.05
2023-07-15T05:50:30.058Z,99919.14
2023-07-15T05:52:58.822Z,99921.01
2023-07-15T05:55:27.589Z,99916.95
2023-07-15T05:57:56.326Z,99918.44
2023-07-15T06:00:30.565Z,99918.48
2023-07-15T06:03:01.488Z,99925.47
2023-07-15T06:05:31.486Z,99913.67
2023-07-15T06:08:00.226Z,99923.83
2023-07-15T06:10:28.997Z,99915.52
2023-07-15T06:12:57.738Z,99922.63
2023-07-15T06:15:26.538Z,99923.52
2023-07-15T06:17:58.414Z,99918.54
2023-07-15T06:20:27.271Z,99916.45
2023-07-15T06:22:56.087Z,99920.00
2023-07-15T06:25:24.884Z,99920.31
2023-07-15T06:27:53.655Z,99913.09
2023-07-15T06:30:22.743Z,99914.48
2023-07-15T06:32:51.617Z,99917.14
2023-07-15T06:35:20.720Z,99913.45
2023-07-15T06:37:49.855Z,99912.41
2023-07-15T06:40:19.698Z,99912.63
2023-07-15T06:42:48.698Z,99901.07
2023-07-15T06:45:19.123Z,99902.47
2023-07-15T06:47:48.040Z,99899.62
2023-07-15T06:50:16.780Z,99896.81
2023-07-15T06:52:47.180Z,99906.92
2023-07-15T06:55:15.985Z,99897.34
2023-07-15T06:57:44.889Z,99896.70
2023-07-15T07:00:13.956Z,99902.17
2023-07-15T07:02:42.740Z,99902.96
2023-07-15T07:05:11.563Z,99902.25
2023-07-15T07:07:40.373Z,99897.17
2023-07-15T07:10:09.491Z,99893.42
2023-07-15T07:12:38.400Z,99891.62
2023-07-15T07:15:07.700Z,99890.71
2023-07-15T07:17:38.299Z,99895.22
2023-07-15T07:20:08.840Z,99898.19
2023-07-15T07:22:38.584Z,99899.02
2023-07-15T07:25:07.571Z,99893.22
2023-07-15T07:27:36.394Z,99902.72
2023-07-15T07:30:05.317Z,99900.86
2023-07-15T07:32:34.135Z,99900.30
2023-07-15T07:35:05.347Z,99902.67
2023-07-15T07:37:35.013Z,99897.83
2023-07-15T07:40:03.865Z,99898.27
2023-07-15T07:42:32.652Z,99890.92
2023-07-15T07:45:01.439Z,99890.08
2023-07-15T07:47:31.164Z,99890.27
2023-07-15T07:49:59.973Z,99890.95
2023-07-15T07:52:28.754Z,99887.22
2023-07-15T07:54:57.574Z,99884.02
2023-07-15T07:57:26.377Z,99879.52
2023-07-15T07:59:55.326Z,99877.80
2023-07-15T08:02:24.239Z,99878.11
2023-07-15T08:04:53.272Z,99877.33
2023-07-15T08:07:22.150Z,99872.98
2023-07-15T08:09:52.478Z,99871.77
2023-07-15T08:12:21.264Z,99864.42
2023-07-15T08:14:50.195Z,99871.02
2023-07-15T08:17:18.978Z,99872.89
2023-07-15T08:19:47.893Z,99866.83
2023-07-15T08:22:16.687Z,99869.69
2023-07-15T08:24:45.799Z,99867.73
2023-07-15T08:27:14.572Z,99866.32
2023-07-15T08:29:43.331Z,99869.16
2023-07-15T08:32:12.193Z,99862.83
2023-07-15T08:34:41.037Z,99864.14
2023-07-15T08:37:09.795Z,99869.25
2023-07-15T08:39:38.571Z,99864.48
2023-07-15T08:42:07.399Z,99859.26
2023-07-15T08:44:37.250Z,99855.20
2023-07-15T08:47:06.384Z,99859.98
2023-07-15T08:49:37.070Z,99855.99
2023-07-15T08:52:06.483Z,99858.93
2023-07-15T08:54:35.327Z,99863.11
2023-07-15T08:57:04.166Z,99858.94
2023-07-15T08:59:32.995Z,99863.89
2023-07-15T09:02:02.441Z,99859.88
2023-07-15T09:04:31.467Z,99850.47
2023-07-15T09:07:00.456Z,99855.32
2023-07-15T09:09:33.901Z,99857.96
2023-07-15T09:12:04.198Z,99855.36
2023-07-15T09:14:33.150Z,99850.08
2023-07-15T09:17:01.948Z,99844.98
2023-07-15T09:19:32.683Z,99853.50
2023-07-15T09:22:08.885Z,99852.73
2023-07-15T09:24:41.308Z,99849.66
2023-07-15T09:27:10.125Z,99847.36
2023-07-15T09:29:39.167Z,99851.80
2023-07-15T09:32:09.532Z,99847.95
2023-07-15T09:34:40.361Z,99844.08
2023-07-15T09:37:09.331Z,99834.59
2023-07-15T09:39:38.049Z,99839.89
2023-07-15T09:42:08.406Z,99836.64
2023-07-15T09:44:41.111Z,99835.92
2023-07-15T09:47:10.160Z,99830.52
2023-07-15T09:49:39.006Z,99832.02
2023-07-15T09:52:07.995Z,99830.95
2023-07-15T09:54:37.113Z,99837.97
2023-07-15T09:57:07.469Z,99839.48
2023-07-15T09:59:37.819Z,99830.23
2023-07-15T10:02:08.148Z,99839.42
2023-07-15T10:04:37.611Z,99831.39
2023-07-15T10:07:06.767Z,99837.21
2023-07-15T10:09:35.685Z,99829.20
2023-07-15T10:12:06.135Z,99829.80
2023-07-15T10:14:35.120Z,99824.56
2023-07-15T10:17:11.381Z,99827.84
2023-07-15T10:19:44.632Z,99830.05
2023-07-15T10:22:13.978Z,99830.31
2023-07-15T10:24:44.237Z,99826.83
2023-07-15T10:27:13.113Z,99823.27
2023-07-15T10:29:42.346Z,99831.78
2023-07-15T10:32:18.007Z,99830.98
2023-07-15T10:34:52.244Z,99826.09
2023-07-15T10:37:21.467Z,99825.42
2023-07-15T10:39:50.290Z,99819.14
2023-07-15T10:42:19.413Z,99812.53
2023-07-15T10:44:49.675Z,99813.08
2023-07-15T10:47:18.520Z,99817.50
2023-07-15T10:49:49.149Z,99821.35
2023-07-15T10:52:19.505Z,99822.44
2023-07-15T10:54:48.327Z,99818.57
2023-07-15T10:57:17.760Z,99816.67
2023-07-15T10:59:47.213Z,99813.92
2023-07-15T11:02:16.381Z,99813.09
2023-07-15T11:04:48.237Z,99815.54
2023-07-15T11:07:17.336Z,99813.89
2023-07-15T11:09:46.161Z,99807.34
2023-07-15T11:12:14.910Z,99799.94
2023-07-15T11:14:44.951Z,99801.04
2023-07-15T11:17:18.842Z,99794.45
2023-07-15T11:19:46.395Z,99787.04
2023-07-15T11:22:17.918Z,99794.45
2023-07-15T11:24:47.893Z,99793.08
2023-07-15T11:27:16.792Z,99792.99
2023-07-15T11:29:46.452Z,99788.09
2023-07-15T11:32:16.988Z,99788.14
2023-07-15T11:34:46.623Z,99790.86
2023-07-15T11:37:15.362Z,99788.98
2023-07-15T11:39:45.281Z,99781.00
2023-07-15T11:42:14.146Z,99782.38
2023-07-15T11:44:42.898Z,99776.34
2023-07-15T11:47:11.818Z,99770.50
2023-07-15T11:49:46.241Z,99765.03
2023-07-15T11:52:22.520Z,99762.95
2023-07-15T11:54:51.356Z,99769.92
2023-07-15T11:57:26.540Z,99775.47
2023-07-15T11:59:55.449Z,99773.59
2023-07-15T12:02:26.984Z,99769.95
2023-07-15T12:04:56.331Z,99765.61
2023-07-15T12:07:25.137Z,99765.45
2023-07-15T12:10:09.425Z,99754.00
2023-07-15T12:12:39.048Z,99751.77
2023-07-15T12:15:08.177Z,99738.33
2023-07-15T12:17:37.038Z,99753.33
2023-07-15T12:20:07.112Z,99751.45
2023-07-15T12:22:36.018Z,99753.70
2023-07-15T12:25:05.373Z,99756.88
2023-07-15T12:27:34.214Z,99754.08
2023-07-15T12:30:05.383Z,99751.30
2023-07-15T12:32:33.376Z,99749.67
2023-07-15T12:35:02.287Z,99741.94
2023-07-15T12:37:31.015Z,99743.48
2023-07-15T12:39:59.808Z,99738.59
2023-07-15T12:42:28.578Z,99729.02
2023-07-15T12:44:57.331Z,99729.72
2023-07-15T12:47:26.098Z,99732.94
2023-07-15T12:49:55.029Z,99734.91
2023-07-15T12:52:23.837Z,99731.30
2023-07-15T12:54:52.612Z,99734.58
2023-07-15T12:57:21.395Z,99730.86
2023-07-15T12:59:54.514Z,99723.33
2023-07-15T13:02:23.353Z,99714.80
2023-07-15T13:04:52.157Z,99719.63
2023-07-15T13:07:22.856Z,99720.86
2023-07-15T13:09:51.803Z,99713.66
2023-07-15T13:12:20.740Z,99706.20
2023-07-15T13:14:53.907Z,99710.70
2023-07-15T13:17:24.393Z,99718.30
2023-07-15T13:19:53.575Z,99697.58
2023-07-15T13:22:24.214Z,99700.25
2023-07-15T13:24:54.974Z,99701.95
2023-07-15T13:27:24.000Z,99713.66
2023-07-15T13:29:54.140Z,99717.03
2023-07-15T13:32:23.028Z,99719.55
2023-07-15T13:34:51.958Z,99711.34
2023-07-15T13:37:20.942Z,99711.28
2023-07-15T13:39:49.776Z,99714.55
2023-07-15T13:42:21.352Z,99709.13
2023-07-15T13:44:50.904Z,99707.03
2023-07-15T13:47:20.834Z,99703.62
2023-07-15T13:49:52.048Z,99702.41
2023-07-15T13:52:20.906Z,99700.62
2023-07-15T13:54:49.728Z,99697.81
2023-07-15T13:57:19.456Z,99702.84
2023-07-15T13:59:48.213Z,99693.72
2023-07-15T14:02:17.110Z,99690.56
2023-07-15T14:04:45.896Z,99694.66
2023-07-15T14:07:15.987Z,99693.72
2023-07-15T14:09:44.828Z,99689.13
2023-07-15T14:12:13.631Z,99687.50
2023-07-15T14:14:42.443Z,99685.96
2023-07-15T14:17:11.490Z,99688.08
2023-07-15T14:19:40.299Z,99686.59
2023-07-15T14:22:15.097Z,99683.78
2023-07-15T14:24:40.948Z,99678.61
2023-07-15T14:27:11.694Z,99676.66
2023-07-15T14:29:40.723Z,99677.31
2023-07-15T14:32:11.201Z,99680.53
2023-07-15T14:34:40.036Z,99672.05
2023-07-15T14:37:09.818Z,99671.92
2023-07-15T14:39:38.541Z,99674.13
2023-07-15T14:42:07.325Z,99670.34
2023-07-15T14:44:37.020Z,99670.72
2023-07-15T14:47:05.925Z,99664.30
2023-07-15T14:49:34.739Z,99665.09
2023-07-15T14:52:03.572Z,99664.03
2023-07-15T14:54:32.704Z,99663.41
2023-07-15T14:57:01.464Z,99655.20
2023-07-15T14:59:30.239Z,99647.23
2023-07-15T15:01:59.156Z,99643.08
2023-07-15T15:04:27.944Z,99640.98
2023-07-15T15:06:56.712Z,99637.80
2023-07-15T15:09:25.527Z,99633.27
2023-07-15T15:11:54.280Z,99638.72
2023-07-15T15:14:26.003Z,99639.33
2023-07-15T15:16:54.786Z,99636.56
2023-07-15T15:19:23.531Z,99632.84
2023-07-15T15:21:52.291Z,99636.98
2023-07-15T15:24:22.480Z,99635.95
2023-07-15T15:26:51.283Z,99632.42
2023-07-15T15:29:20.163Z,99626.28
2023-07-15T15:31:49.095Z,99622.00
2023-07-15T15:34:17.963Z,99622.36
2023-07-15T15:36:46.776Z,99621.09
2023-07-15T15:39:15.535Z,99611.95
2023-07-15T15:41:45.056Z,99608.48
2023-07-15T15:44:13.762Z,99608.16
2023-07-15T15:46:42.642Z,99607.53
2023-07-15T15:49:11.402Z,99603.89
2023-07-15T15:51:40.159Z,99602.52
2023-07-15T15:54:10.064Z,99603.89
2023-07-15T15:56:38.813Z,99600.08
2023-07-15T15:59:07.647Z,99595.11
2023-07-15T16:01:38.727Z,99597.27
2023-07-15T16:04:07.582Z,99593.44
2023-07-15T16:06:36.498Z,99593.44
2023-07-15T16:09:07.439Z,99587.53
2023-07-15T16:11:36.193Z,99595.18
2023-07-15T16:14:05.449Z,99593.69
2023-07-15T16:16:34.232Z,99590.98
2023-07-15T16:19:04.482Z,99593.99
2023-07-15T16:21:34.136Z,99588.41
2023-07-15T16:24:02.867Z,99582.59
2023-07-15T16:26:31.616Z,99589.64
2023-07-15T16:29:00.350Z,99582.11
2023-07-15T16:31:32.539Z,99585.45
2023-07-15T16:33:59.559Z,99576.53
2023-07-15T16:36:29.643Z,99578.75
2023-07-15T16:38:58.470Z,99567.53
2023-07-15T16:41:27.210Z,99574.20
2023-07-15T16:43:56.111Z,99581.48
2023-07-15T16:46:24.941Z,99578.03
2023-07-15T16:48:53.777Z,99576.95
2023-07-15T16:51:22.543Z,99576.97
2023-07-15T16:53:51.277Z,99580.75
2023-07-15T16:56:20.045Z,99579.94
2023-07-15T16:58:48.788Z,99576.88
2023-07-15T17:01:17.777Z,99580.84
2023-07-15T17:03:47.013Z,99580.38
2023-07-15T17:06:16.039Z,99587.80
2023-07-15T17:08:44.810Z,99582.58
2023-07-15T17:11:13.885Z,99593.68
2023-07-15T17:13:42.894Z,99590.34
2023-07-15T17:16:11.733Z,99592.50
2023-07-15T17:18:40.608Z,99591.43
2023-07-15T17:21:09.362Z,99589.23
2023-07-15T17:23:38.106Z,99589.25
2023-07-15T17:26:06.858Z,99587.33
2023-07-15T17:28:37.980Z,99581.65
2023-07-15T17:31:06.751Z,99588.81
2023-07-15T17:33:35.573Z,99586.04
2023-07-15T17:36:06.298Z,99588.23
2023-07-15T17:38:35.049Z,99582.52
2023-07-15T17:41:04.903Z,99582.80
2023-07-15T17:43:33.602Z,99582.55
2023-07-15T17:46:04.143Z,99576.77
2023-07-15T17:54:42.034Z,99574.72
2023-07-15T17:57:10.799Z,99572.77
2023-07-15T17:59:40.536Z,99576.06
2023-07-15T18:02:09.300Z,99574.77
2023-07-15T18:04:39.453Z,99579.02
2023-07-15T18:07:10.173Z,99572.28
2023-07-15T18:09:39.860Z,99569.91
2023-07-15T18:12:19.159Z,99570.00
2023-07-15T18:14:53.893Z,99569.81
2023-07-15T18:17:25.648Z,99575.23
2023-07-15T18:19:54.390Z,99570.67
2023-07-15T18:22:23.241Z,99574.41
2023-07-15T18:24:56.146Z,99573.84
2023-07-15T18:27:24.876Z,99579.73
2023-07-15T18:29:55.317Z,99578.72
2023-07-15T18:32:25.363Z,99574.80
2023-07-15T18:34:55.714Z,99581.45
2023-07-15T18:37:24.528Z,99576.69
2023-07-15T18:39:53.291Z,99583.27
2023-07-15T18:42:22.069Z,99573.05
2023-07-15T18:44:51.251Z,99583.64
2023-07-15T18:47:20.100Z,99588.50
2023-07-15T18:49:49.954Z,99585.03
2023-07-15T18:52:18.702Z,99587.42
2023-07-15T18:54:47.460Z,99584.97
2023-07-15T18:57:22.928Z,99589.37
2023-07-15T18:59:47.810Z,99589.81
2023-07-15T19:02:16.626Z,99599.64
2023-07-15T19:04:45.406Z,99594.66
2023-07-15T19:07:14.159Z,99595.08
2023-07-15T19:09:42.904Z,99593.22
2023-07-15T19:12:12.631Z,99590.70
2023-07-15T19:14:42.343Z,99595.83
2023-07-15T19:17:11.151Z,99593.83
2023-07-15T19:19:39.936Z,99593.75
2023-07-15T19:22:08.748Z,99593.33
2023-07-15T19:24:37.495Z,99595.11
2023-07-15T19:27:08.305Z,99598.17
2023-07-15T19:29:37.258Z,99591.44
2023-07-15T19:32:07.010Z,99594.73
2023-07-15T19:34:36.039Z,99593.38
2023-07-15T19:37:05.369Z,99592.34
2023-07-15T19:39:34.204Z,99594.23
2023-07-15T19:42:03.012Z,99596.05
2023-07-15T19:44:31.753Z,99593.25
2023-07-15T19:47:00.543Z,99588.41
2023-07-15T19:49:29.411Z,99588.83
2023-07-15T19:51:58.147Z,99589.82
2023-07-15T19:54:26.888Z,99590.22
2023-07-15T19:56:57.801Z,99583.84
2023-07-15T19:59:28.322Z,99583.25
2023-07-15T20:01:58.244Z,99580.88
2023-07-15T20:04:28.107Z,99577.30
2023-07-15T20:06:57.944Z,99577.26
2023-07-15T20:09:26.727Z,99575.09
2023-07-15T20:11:56.576Z,99572.30
2023-07-15T20:14:25.303Z,99569.71
2023-07-15T20:16:56.024Z,99572.25
2023-07-15T20:19:24.796Z,99570.80
2023-07-15T20:21:54.496Z,99574.45
2023-07-15T20:24:23.236Z,99569.83
2023-07-15T20:26:55.720Z,99567.64
2023-07-15T20:29:25.522Z,99566.37
2023-07-15T20:31:54.335Z,99571.58
2023-07-15T20:34:23.195Z,99570.57
2023-07-15T20:36:53.844Z,99574.52
2023-07-15T20:39:22.649Z,99580.43
2023-07-15T20:41:52.404Z,99577.73
2023-07-15T20:44:22.133Z,99579.67
2023-07-15T20:46:51.836Z,99577.00
2023-07-15T20:49:20.619Z,99567.22
2023-07-15T20:51:49.620Z,99572.54
2023-07-15T20:54:18.561Z,99578.16
2023-07-15T20:56:49.292Z,99583.45
2023-07-15T20:59:18.301Z,99587.25
2023-07-15T21:01:47.093Z,99587.34
2023-07-15T21:04:15.951Z,99582.03
2023-07-15T21:06:45.763Z,99588.52
2023-07-15T21:09:14.954Z,99586.34
2023-07-15T21:11:43.884Z,99590.06
2023-07-15T21:14:12.689Z,99589.68
2023-07-15T21:16:42.565Z,99593.97
2023-07-15T21:19:13.274Z,99591.34
2023-07-15T21:21:42.241Z,99595.51
2023-07-15T21:24:11.094Z,99594.83
2023-07-15T21:26:41.079Z,99599.53
2023-07-15T21:29:09.862Z,99598.86
2023-07-15T21:31:39.067Z,99602.70
2023-07-15T21:34:07.908Z,99600.84
2023-07-15T21:36:38.657Z,99598.02
2023-07-15T21:39:08.491Z,99600.45
2023-07-15T21:41:37.265Z,99599.42
2023-07-15T21:44:07.071Z,99596.16
2023-07-15T21:46:40.703Z,99594.44
2023-07-15T21:49:09.642Z,99599.80
2023-07-15T21:51:38.446Z,99598.59
2023-07-15T21:54:07.632Z,99595.39
2023-07-15T21:56:36.450Z,99591.56
2023-07-15T21:59:07.511Z,99594.95
2023-07-15T22:01:36.684Z,99596.37
2023-07-15T22:04:05.584Z,99593.81
2023-07-15T22:06:34.553Z,99602.34
2023-07-15T22:09:03.911Z,99594.60
2023-07-15T22:11:32.701Z,99595.88
2023-07-15T22:14:08.530Z,99591.85
2023-07-15T22:16:37.369Z,99589.17
2023-07-15T22:19:06.261Z,99587.95
2023-07-15T22:21:39.475Z,99582.13
2023-07-15T22:24:08.356Z,99584.06
2023-07-15T22:26:38.085Z,99584.67
2023-07-15T22:29:07.991Z,99588.14
2023-07-15T22:31:37.062Z,99584.63
2023-07-15T22:34:07.152Z,99584.89
2023-07-15T22:36:36.063Z,99580.91
2023-07-15T22:39:05.551Z,99579.89
2023-07-15T22:41:34.990Z,99575.98
2023-07-15T22:44:05.142Z,99580.00
2023-07-15T22:46:33.966Z,99573.10
2023-07-15T22:49:02.853Z,99574.02
2023-07-15T22:51:31.597Z,99574.45
2023-07-15T22:54:00.393Z,99567.55
2023-07-15T22:56:29.340Z,99562.77
2023-07-15T22:58:58.263Z,99556.20
2023-07-15T23:01:27.277Z,99562.13
2023-07-15T23:03:56.099Z,99566.20
2023-07-15T23:06:24.927Z,99558.88
2023-07-15T23:08:53.802Z,99569.81
2023-07-15T23:11:22.796Z,99568.38
2023-07-15T23:13:51.583Z,99564.81
2023-07-15T23:16:20.456Z,99561.13
2023-07-15T23:18:49.339Z,99567.50
2023-07-15T23:21:18.143Z,99558.20
2023-07-15T23:23:47.017Z,99553.45
2023-07-15T23:26:16.130Z,99556.41
2023-07-15T23:28:45.246Z,99557.05
2023-07-15T23:31:15.088Z,99544.97
2023-07-15T23:33:44.578Z,99544.70
2023-07-15T23:36:13.697Z,99542.69
2023-07-15T23:38:43.881Z,99537.70
2023-07-15T23:41:13.605Z,99538.39
2023-07-15T23:43:42.349Z,99533.92
2023-07-15T23:46:11.160Z,99542.21
2023-07-15T23:48:39.980Z,99544.33
2023-07-15T23:51:09.270Z,99536.91
2023-07-15T23:53:38.163Z,99532.76
2023-07-15T23:56:10.177Z,99532.34
2023-07-15T23:58:40.051Z,99538.62
